Cosco Nagoya — 3ESJ8 — position and weather

sailwx.info

Track history (hours):
 
Tides and Currents Weather Stations Pressure Air Temp Water Temp Dewpoint Dewpoint Depression Visibility Wind Speed Wind Dir Waves Ship Positions

Cosco Nagoya

Last reported at 2017-Jan-14 08:04 UTC. Time now 2017-Jan-23 19:03 UTC.
Position N 05°10' W 003°58'.
Warning: this ship's position is 9 days out of date.

Length 260 m; draft 9.4 m.

Type: Cargo ship. MMSI: 370320000.

Date/timePositionNaut miles runAvg speedWind from/ knotsBaromVisibWave heightAir tempDewpointWater temp
2017-Jan-14 08:04N 05°10' W 003°58'510.7
2017-Jan-14 07:33N 05°15' W 003°60'2 2.0
2017-Jan-14 06:33N 05°16' W 004°01'0 0.0
2017-Jan-14 05:32N 05°16' W 004°01'0 0.0
2017-Jan-14 04:19N 05°16' W 004°01'0 0.0
2017-Jan-13 23:31N 05°16' W 004°01'0 0.0
2017-Jan-13 08:30N 05°16' W 004°01'4 4.2
2017-Jan-13 07:33N 05°13' W 003°58'1 0.8
2017-Jan-13 06:18N 05°12' W 003°58'4 5.1
2017-Jan-13 05:33N 05°11' W 004°02'  
2017-Jan-10 22:33N 05°13' W 004°05'0 0.0
2017-Jan-10 20:20N 05°13' W 004°05'4 4.7
2017-Jan-10 19:31N 05°11' W 004°02'  
Track history (hours):
 
Tides and Currents Weather Stations Pressure Air Temp Water Temp Dewpoint Dewpoint Depression Visibility Wind Speed Wind Dir Waves Ship Positions

Cosco Nagoya

Last reported at 2017-Jan-14 08:04 UTC. Time now 2017-Jan-23 19:03 UTC.
Position N 05°10' W 003°58'.
Warning: this ship's position is 9 days out of date.

Length 260 m; draft 9.4 m.

Type: Cargo ship. MMSI: 370320000.

Date/timePositionNaut miles runAvg speedWind from/ knotsBaromVisibWave heightAir tempDewpointWater temp
2017-Jan-14 08:04N 05°10' W 003°58'510.7
2017-Jan-14 07:33N 05°15' W 003°60'2 2.0
2017-Jan-14 06:33N 05°16' W 004°01'0 0.0
2017-Jan-14 05:32N 05°16' W 004°01'0 0.0
2017-Jan-14 04:19N 05°16' W 004°01'0 0.0
2017-Jan-13 23:31N 05°16' W 004°01'0 0.0
2017-Jan-13 08:30N 05°16' W 004°01'4 4.2
2017-Jan-13 07:33N 05°13' W 003°58'1 0.8
2017-Jan-13 06:18N 05°12' W 003°58'4 5.1
2017-Jan-13 05:33N 05°11' W 004°02'  
2017-Jan-10 22:33N 05°13' W 004°05'0 0.0
2017-Jan-10 20:20N 05°13' W 004°05'4 4.7
2017-Jan-10 19:31N 05°11' W 004°02'  

Dump ship's entire track history